Time;durP1;ratioP1;P1;durP2;ratioP2;P2;SDS_P1;SDS_P2;PMS_P1;PMS_P2;Temp;Humidity;BMP_temperature;BMP_pressure;BME280_temperature;BME280_humidity;BME280_pressure;Samples;Min_cycle;Max_cycle;Signal;HPM_P1;HPM_P2
2023/02/03 00:01:19;;;;;;;20.10;2.93;;;9.00;99.90;;;;;;5072687;28;20525;-83
2023/02/03 00:03:45;;;;;;;13.77;3.10;;;9.00;99.90;;;;;;5073385;28;20427;-83
2023/02/03 00:06:10;;;;;;;19.00;3.67;;;9.00;99.90;;;;;;5073663;28;20017;-83
2023/02/03 00:08:37;;;;;;;14.83;2.17;;;9.00;99.90;;;;;;5055559;28;20116;-82
2023/02/03 00:11:03;;;;;;;20.57;2.87;;;9.00;99.90;;;;;;5055218;28;20044;-83
2023/02/03 00:13:29;;;;;;;16.60;3.07;;;9.00;99.90;;;;;;5055164;28;20409;-83
2023/02/03 00:15:54;;;;;;;17.43;3.13;;;9.00;99.90;;;;;;5073797;28;20407;-83
2023/02/03 00:18:20;;;;;;;12.87;2.63;;;9.00;99.90;;;;;;5055783;28;20464;-82
2023/02/03 00:20:46;;;;;;;18.67;3.60;;;9.00;99.90;;;;;;5055740;28;20024;-84
2023/02/03 00:23:12;;;;;;;18.57;2.73;;;9.00;99.90;;;;;;5072156;28;20025;-84
2023/02/03 00:25:38;;;;;;;22.37;2.70;;;9.00;99.90;;;;;;5073493;28;20024;-84
2023/02/03 00:28:04;;;;;;;22.20;3.40;;;9.00;99.90;;;;;;5073052;28;20024;-84
2023/02/03 00:30:32;;;;;;;15.37;2.43;;;9.00;99.90;;;;;;5072132;28;20025;-84
2023/02/03 00:32:58;;;;;;;20.20;3.13;;;9.10;99.90;;;;;;5073240;28;20039;-84
2023/02/03 00:35:24;;;;;;;14.60;3.37;;;9.00;99.90;;;;;;5055136;28;20029;-83
2023/02/03 00:37:54;;;;;;;16.70;2.63;;;9.00;99.90;;;;;;5072476;28;20047;-84
2023/02/03 00:40:21;;;;;;;15.50;2.67;;;9.00;99.90;;;;;;5071776;28;20070;-82
2023/02/03 00:42:47;;;;;;;13.73;2.90;;;9.10;99.90;;;;;;5072176;28;20020;-84
2023/02/03 00:45:12;;;;;;;16.43;3.17;;;9.00;99.90;;;;;;5038546;28;20031;-83
2023/02/03 00:47:38;;;;;;;14.97;2.60;;;9.10;99.90;;;;;;5046916;28;20053;-84
2023/02/03 00:50:05;;;;;;;11.77;2.57;;;9.10;99.90;;;;;;5050846;28;20104;-84
2023/02/03 00:52:31;;;;;;;12.10;2.77;;;9.10;99.90;;;;;;5034246;28;20044;-84
2023/02/03 00:54:56;;;;;;;16.00;2.90;;;9.10;99.90;;;;;;5033903;28;20025;-84
2023/02/03 00:57:22;;;;;;;16.83;2.50;;;9.10;99.90;;;;;;5036617;28;20051;-83
2023/02/03 00:59:47;;;;;;;22.27;2.77;;;9.10;99.90;;;;;;5039112;28;20029;-85
2023/02/03 01:02:13;;;;;;;13.97;3.40;;;9.10;99.90;;;;;;5055595;28;20521;-85
2023/02/03 01:04:39;;;;;;;16.87;2.77;;;9.10;99.90;;;;;;5056087;28;20072;-84
2023/02/03 01:07:05;;;;;;;17.37;3.70;;;9.10;99.90;;;;;;5055768;28;20370;-84
2023/02/03 01:09:35;;;;;;;18.97;3.10;;;9.10;99.90;;;;;;5055771;28;20495;-85
2023/02/03 01:12:01;;;;;;;19.03;2.97;;;9.10;99.90;;;;;;5055618;28;20065;-85
2023/02/03 01:14:27;;;;;;;10.00;2.47;;;9.10;99.90;;;;;;5057367;28;20064;-85
2023/02/03 01:16:52;;;;;;;16.40;3.10;;;9.10;99.90;;;;;;5039409;28;20116;-85
2023/02/03 01:19:18;;;;;;;9.57;2.70;;;9.10;99.90;;;;;;5038907;28;20074;-85
2023/02/03 01:21:44;;;;;;;12.97;2.93;;;9.20;99.90;;;;;;5039150;28;20473;-84
2023/02/03 01:24:09;;;;;;;17.27;3.40;;;9.20;99.90;;;;;;5055466;28;20388;-83
2023/02/03 01:26:35;;;;;;;13.37;3.23;;;9.20;99.90;;;;;;5039169;28;20449;-85
2023/02/03 01:29:01;;;;;;;21.60;4.63;;;9.20;99.90;;;;;;5038993;28;20029;-83
2023/02/03 01:31:35;;;;;;;12.40;2.73;;;9.20;99.90;;;;;;5068293;28;20060;-83
2023/02/03 01:34:02;;;;;;;19.13;3.40;;;9.20;99.90;;;;;;5074236;28;20029;-84
2023/02/03 01:36:29;;;;;;;15.70;3.27;;;9.20;99.90;;;;;;5067688;28;20025;-83
2023/02/03 01:38:55;;;;;;;11.10;2.63;;;9.10;99.90;;;;;;5067179;28;20032;-83
2023/02/03 01:41:25;;;;;;;14.47;2.70;;;9.20;99.90;;;;;;5060253;28;20029;-83
2023/02/03 01:43:56;;;;;;;11.83;2.60;;;9.20;99.90;;;;;;5055787;28;20171;-83
2023/02/03 01:46:47;;;;;;;13.33;2.60;;;9.20;99.90;;;;;;5056380;28;20028;-83
2023/02/03 01:49:26;;;;;;;13.77;2.87;;;9.20;99.90;;;;;;5057499;28;20084;-83
2023/02/03 01:51:54;;;;;;;14.97;3.00;;;9.10;99.90;;;;;;5057002;28;20021;-83
2023/02/03 01:54:30;;;;;;;12.00;2.40;;;9.20;99.90;;;;;;5055572;28;20021;-84
2023/02/03 01:57:06;;;;;;;16.60;2.37;;;9.20;99.90;;;;;;5054919;28;20074;-83
2023/02/03 01:59:34;;;;;;;16.67;2.77;;;9.20;99.90;;;;;;5055152;28;20024;-83
2023/02/03 02:02:02;;;;;;;10.57;2.20;;;9.20;99.90;;;;;;5054992;28;20389;-84
2023/02/03 02:04:39;;;;;;;13.77;3.63;;;9.20;99.90;;;;;;5055752;28;20033;-84
2023/02/03 02:07:05;;;;;;;11.30;2.00;;;9.20;99.90;;;;;;5053830;28;20029;-84
2023/02/03 02:09:31;;;;;;;13.50;2.40;;;9.20;99.90;;;;;;5037727;28;20033;-84
2023/02/03 02:11:57;;;;;;;13.10;2.50;;;9.20;99.90;;;;;;5037873;28;20022;-83
2023/02/03 02:14:23;;;;;;;11.57;2.60;;;9.20;99.90;;;;;;5055650;28;20522;-84
2023/02/03 02:17:10;;;;;;;16.30;2.30;;;9.20;99.90;;;;;;5037637;28;20527;-84
2023/02/03 02:19:47;;;;;;;12.17;2.47;;;9.20;99.90;;;;;;5054583;28;20027;-84
2023/02/03 02:22:27;;;;;;;15.10;2.10;;;9.20;99.90;;;;;;5054223;28;20147;-84
2023/02/03 02:25:02;;;;;;;18.27;2.80;;;9.20;99.90;;;;;;5053925;28;20050;-84
2023/02/03 02:27:39;;;;;;;10.27;2.40;;;9.20;99.90;;;;;;5054433;28;20029;-84
2023/02/03 02:30:46;;;;;;;13.70;2.23;;;9.20;99.90;;;;;;5055393;28;20021;-84
2023/02/03 02:33:29;;;;;;;14.33;2.33;;;9.20;99.90;;;;;;5055306;28;20060;-84
2023/02/03 02:36:06;;;;;;;8.43;1.90;;;9.20;99.90;;;;;;5053979;28;20029;-83
2023/02/03 02:38:58;;;;;;;13.87;2.30;;;9.20;99.90;;;;;;5053972;28;20036;-85
2023/02/03 02:41:51;;;;;;;10.57;1.70;;;9.20;99.90;;;;;;5038410;28;20037;-85
2023/02/03 02:44:24;;;;;;;11.97;2.37;;;9.10;99.90;;;;;;5054251;28;20052;-84
2023/02/03 02:46:56;;;;;;;10.77;2.23;;;9.10;99.90;;;;;;5055195;28;20028;-84
2023/02/03 02:49:27;;;;;;;13.83;2.33;;;9.20;99.90;;;;;;5055138;28;20059;-84
2023/02/03 02:51:53;;;;;;;9.33;1.67;;;9.10;99.90;;;;;;5053411;28;20025;-84
2023/02/03 02:54:22;;;;;;;12.37;2.83;;;9.20;99.90;;;;;;5037109;28;20087;-84
2023/02/03 02:56:53;;;;;;;11.53;2.40;;;9.10;99.90;;;;;;5053953;28;20066;-85
2023/02/03 02:59:19;;;;;;;7.60;2.00;;;9.20;99.90;;;;;;5054171;28;20025;-84
2023/02/03 03:01:44;;;;;;;9.07;1.67;;;9.20;99.90;;;;;;5054890;28;20032;-84
2023/02/03 03:04:12;;;;;;;10.13;1.60;;;9.20;99.90;;;;;;5037001;28;20072;-84
2023/02/03 03:06:43;;;;;;;9.87;1.93;;;9.20;99.90;;;;;;5037081;28;20536;-84
2023/02/03 03:09:34;;;;;;;14.00;2.03;;;9.30;99.90;;;;;;5053462;28;20021;-84
2023/02/03 03:12:06;;;;;;;17.37;1.97;;;9.30;99.90;;;;;;5053542;28;20037;-84
2023/02/03 03:14:33;;;;;;;10.00;2.20;;;9.30;99.90;;;;;;5053529;28;20029;-84
2023/02/03 03:17:05;;;;;;;17.30;1.97;;;9.30;99.90;;;;;;5053010;28;20029;-84
2023/02/03 03:19:40;;;;;;;12.13;2.17;;;9.30;99.90;;;;;;5053822;28;20025;-84
2023/02/03 03:22:09;;;;;;;9.63;2.00;;;9.30;99.90;;;;;;5053681;28;20028;-84
2023/02/03 03:24:47;;;;;;;10.90;1.90;;;9.30;99.90;;;;;;5053239;28;20064;-84
2023/02/03 03:27:27;;;;;;;11.60;1.73;;;9.30;99.90;;;;;;5053166;28;20048;-85
2023/02/03 03:30:07;;;;;;;10.13;1.60;;;9.30;99.90;;;;;;5055262;28;20028;-85
2023/02/03 03:32:33;;;;;;;14.63;2.10;;;9.30;99.90;;;;;;5058911;28;20060;-84
2023/02/03 03:35:01;;;;;;;12.87;2.23;;;9.30;99.90;;;;;;5074842;28;20036;-85
2023/02/03 03:37:30;;;;;;;13.43;2.13;;;9.30;99.90;;;;;;5063203;28;20025;-84
2023/02/03 03:39:58;;;;;;;10.90;2.13;;;9.30;99.90;;;;;;5056425;28;20534;-83
2023/02/03 03:42:55;;;;;;;11.40;2.47;;;9.30;99.90;;;;;;5055380;28;20033;-83
2023/02/03 03:45:31;;;;;;;12.20;2.97;;;9.30;99.90;;;;;;5053088;28;20482;-83
2023/02/03 03:48:11;;;;;;;10.57;2.37;;;9.30;99.90;;;;;;5052807;28;20067;-83
2023/02/03 03:50:42;;;;;;;11.97;2.33;;;9.30;99.90;;;;;;5052680;28;20068;-83
2023/02/03 03:53:11;;;;;;;14.10;2.77;;;9.30;99.90;;;;;;5052657;28;20071;-82
2023/02/03 03:55:39;;;;;;;10.97;2.03;;;9.30;99.90;;;;;;5052889;28;20405;-83
2023/02/03 03:58:09;;;;;;;14.90;3.03;;;9.30;99.90;;;;;;5053726;28;20074;-84
2023/02/03 04:00:38;;;;;;;11.53;2.10;;;9.30;99.90;;;;;;5052391;28;20017;-84
2023/02/03 04:03:20;;;;;;;16.57;2.63;;;9.30;99.90;;;;;;5053502;28;20036;-84
2023/02/03 04:05:47;;;;;;;12.50;2.33;;;9.30;99.90;;;;;;5052070;28;20025;-84
2023/02/03 04:08:13;;;;;;;16.80;3.30;;;9.40;99.90;;;;;;5035917;28;20025;-83
2023/02/03 04:10:40;;;;;;;13.03;2.50;;;9.40;99.90;;;;;;5035503;28;20516;-85
2023/02/03 04:13:08;;;;;;;12.93;2.37;;;9.30;99.90;;;;;;5052242;28;20119;-84
2023/02/03 04:15:34;;;;;;;10.53;2.80;;;9.40;99.90;;;;;;5052266;28;20088;-84
2023/02/03 04:18:00;;;;;;;12.60;2.17;;;9.40;99.90;;;;;;5052458;28;20550;-84
2023/02/03 04:20:27;;;;;;;13.70;3.10;;;9.40;99.90;;;;;;5052212;28;20381;-84
2023/02/03 04:22:53;;;;;;;15.00;2.13;;;9.40;99.90;;;;;;5052272;28;20033;-85
2023/02/03 04:25:19;;;;;;;15.00;2.57;;;9.40;99.90;;;;;;5053125;28;20056;-84
2023/02/03 04:27:45;;;;;;;9.27;2.37;;;9.40;99.90;;;;;;5052344;28;20064;-85
2023/02/03 04:30:11;;;;;;;11.87;2.03;;;9.40;99.90;;;;;;5035847;28;20053;-85
2023/02/03 04:32:37;;;;;;;15.43;2.07;;;9.40;99.90;;;;;;5035600;28;20127;-85
2023/02/03 04:35:05;;;;;;;15.77;2.23;;;9.40;99.90;;;;;;5051679;28;20400;-84
2023/02/03 04:37:30;;;;;;;9.63;2.03;;;9.40;99.90;;;;;;5052038;28;20472;-83
2023/02/03 04:39:56;;;;;;;14.30;2.10;;;9.40;99.90;;;;;;5052091;28;20052;-84
2023/02/03 04:42:23;;;;;;;12.33;2.90;;;9.50;99.90;;;;;;5051833;28;20033;-84
2023/02/03 04:44:50;;;;;;;13.77;2.10;;;9.50;99.90;;;;;;5052073;28;20036;-83
2023/02/03 04:47:16;;;;;;;9.63;2.27;;;9.50;99.90;;;;;;5051778;28;20071;-83
2023/02/03 04:49:42;;;;;;;12.57;1.73;;;9.50;99.90;;;;;;5052016;28;20029;-83
2023/02/03 04:52:08;;;;;;;11.00;1.53;;;9.50;99.90;;;;;;5051845;28;20044;-84
2023/02/03 04:54:34;;;;;;;11.33;1.40;;;9.50;99.90;;;;;;5051561;28;20112;-83
2023/02/03 04:57:00;;;;;;;10.53;1.70;;;9.50;99.90;;;;;;5053021;28;20700;-84
2023/02/03 04:59:25;;;;;;;8.00;1.30;;;9.50;99.90;;;;;;5052792;28;20029;-84
2023/02/03 05:01:51;;;;;;;10.20;1.83;;;9.50;99.90;;;;;;5035339;28;20044;-84
2023/02/03 05:04:17;;;;;;;8.03;1.63;;;9.60;99.90;;;;;;5051788;28;20040;-83
2023/02/03 05:06:42;;;;;;;6.00;1.27;;;9.60;99.90;;;;;;5035431;28;20040;-84
2023/02/03 05:09:08;;;;;;;9.97;2.03;;;9.60;99.90;;;;;;5035629;28;20488;-84
2023/02/03 05:11:34;;;;;;;8.60;1.20;;;9.60;99.90;;;;;;5052098;28;20439;-84
2023/02/03 05:13:59;;;;;;;12.60;1.70;;;9.60;99.90;;;;;;5029991;28;20044;-84
2023/02/03 05:16:25;;;;;;;14.53;2.03;;;9.60;99.90;;;;;;5058325;28;20094;-84
2023/02/03 05:18:51;;;;;;;12.57;1.93;;;9.60;99.90;;;;;;5070044;28;20032;-85
2023/02/03 05:21:17;;;;;;;11.50;1.63;;;9.60;99.90;;;;;;5034620;28;20062;-84
2023/02/03 05:23:42;;;;;;;12.27;1.30;;;9.60;99.90;;;;;;5014404;28;20021;-83
2023/02/03 05:26:08;;;;;;;13.57;1.77;;;9.60;99.90;;;;;;5032908;28;20498;-84
2023/02/03 05:28:34;;;;;;;9.63;1.60;;;9.60;99.90;;;;;;5033404;28;20025;-83
2023/02/03 05:31:00;;;;;;;13.70;1.53;;;9.60;99.90;;;;;;5032799;28;20030;-83
2023/02/03 05:33:26;;;;;;;7.93;1.93;;;9.60;99.90;;;;;;5038660;28;20060;-82
2023/02/03 05:35:52;;;;;;;8.43;1.50;;;9.60;99.90;;;;;;5052944;28;20038;-84
2023/02/03 05:38:17;;;;;;;12.20;1.97;;;9.60;99.90;;;;;;5033706;28;20359;-84
2023/02/03 05:43:30;;;;;;;10.30;1.50;;;9.60;99.90;;;;;;5035252;28;20124;-84
2023/02/03 05:46:00;;;;;;;11.30;1.47;;;9.60;99.90;;;;;;5020087;28;20446;-84
2023/02/03 05:48:25;;;;;;;6.37;1.50;;;9.60;99.90;;;;;;5035799;28;20028;-85
2023/02/03 05:50:51;;;;;;;7.57;1.80;;;9.60;99.90;;;;;;5018594;28;20116;-83
2023/02/03 05:53:16;;;;;;;14.47;2.67;;;9.60;99.90;;;;;;5037261;28;20472;-83
2023/02/03 05:55:42;;;;;;;15.87;1.80;;;9.50;99.90;;;;;;5018819;28;20036;-84
2023/02/03 05:58:08;;;;;;;14.43;1.43;;;9.60;99.90;;;;;;5035672;28;20085;-83
2023/02/03 06:00:34;;;;;;;15.43;2.07;;;9.50;99.90;;;;;;5018364;28;20025;-84
2023/02/03 06:03:01;;;;;;;15.03;2.27;;;9.60;99.90;;;;;;5018520;28;20079;-83
2023/02/03 06:05:28;;;;;;;10.83;1.67;;;9.50;99.90;;;;;;5034204;28;20029;-83
2023/02/03 06:07:54;;;;;;;8.37;1.57;;;9.50;99.90;;;;;;5034561;28;20029;-84
2023/02/03 06:10:21;;;;;;;14.03;2.37;;;9.50;99.90;;;;;;5035668;28;20116;-84
2023/02/03 06:12:47;;;;;;;13.27;1.67;;;9.50;99.90;;;;;;5035892;28;20037;-85
2023/02/03 06:15:14;;;;;;;12.60;1.60;;;9.50;99.90;;;;;;5034733;28;20030;-84
2023/02/03 06:17:43;;;;;;;13.47;2.13;;;9.50;99.90;;;;;;5041339;28;20037;-83
2023/02/03 06:20:11;;;;;;;12.70;2.17;;;9.50;99.90;;;;;;5037205;28;20052;-84
2023/02/03 06:22:37;;;;;;;12.47;1.80;;;9.50;99.90;;;;;;5019203;28;20057;-83
2023/02/03 06:25:03;;;;;;;14.03;1.80;;;9.50;99.90;;;;;;5052347;28;20056;-84
2023/02/03 06:27:28;;;;;;;14.90;1.90;;;9.50;99.90;;;;;;5037459;28;20029;-84
2023/02/03 06:29:54;;;;;;;15.63;2.67;;;9.50;99.90;;;;;;5037701;28;20397;-85
2023/02/03 06:32:20;;;;;;;15.50;2.10;;;9.50;99.90;;;;;;5053322;28;20474;-84
2023/02/03 06:34:46;;;;;;;18.20;2.60;;;9.50;99.90;;;;;;5037427;28;20071;-84
2023/02/03 06:37:11;;;;;;;11.23;1.60;;;9.40;99.90;;;;;;5054261;28;20425;-84
2023/02/03 06:39:37;;;;;;;12.73;2.33;;;9.40;99.90;;;;;;5037513;28;20100;-84
2023/02/03 06:42:03;;;;;;;16.50;3.00;;;9.40;99.90;;;;;;5054254;28;20090;-85
2023/02/03 06:44:28;;;;;;;12.50;1.70;;;9.40;99.90;;;;;;5037620;28;20029;-85
2023/02/03 06:46:55;;;;;;;13.17;3.13;;;9.50;99.90;;;;;;5037401;28;20476;-84
2023/02/03 06:49:20;;;;;;;15.83;1.87;;;9.40;99.90;;;;;;5037349;28;20040;-83
2023/02/03 06:51:46;;;;;;;14.77;2.27;;;9.40;99.90;;;;;;5054166;28;20123;-83
2023/02/03 06:54:12;;;;;;;11.93;2.20;;;9.40;99.90;;;;;;5019983;28;20037;-83
2023/02/03 06:56:38;;;;;;;17.17;2.17;;;9.50;99.90;;;;;;5054108;28;20013;-84
2023/02/03 06:59:05;;;;;;;11.40;1.77;;;9.50;99.90;;;;;;5037049;28;20021;-85
2023/02/03 07:01:30;;;;;;;12.70;2.37;;;9.40;99.90;;;;;;5053857;28;20121;-85
2023/02/03 07:03:57;;;;;;;16.23;2.57;;;9.40;99.90;;;;;;5037732;28;20025;-83
2023/02/03 07:06:28;;;;;;;10.83;1.87;;;9.40;99.90;;;;;;5054086;28;20021;-83
2023/02/03 07:08:58;;;;;;;19.20;2.77;;;9.40;99.90;;;;;;5055139;28;20033;-84
2023/02/03 07:11:24;;;;;;;12.20;1.97;;;9.40;99.90;;;;;;5053670;28;20435;-84
2023/02/03 07:13:50;;;;;;;11.90;2.20;;;9.40;99.90;;;;;;5054122;28;20037;-84
2023/02/03 07:16:16;;;;;;;13.40;2.23;;;9.40;99.90;;;;;;5037707;28;20025;-84
2023/02/03 07:18:41;;;;;;;12.43;2.10;;;9.40;99.90;;;;;;5051327;28;20091;-84
2023/02/03 07:21:27;;;;;;;11.77;1.73;;;9.40;99.90;;;;;;5040649;28;20026;-83
2023/02/03 07:23:53;;;;;;;13.87;2.17;;;9.40;99.90;;;;;;5039764;28;20034;-84
2023/02/03 07:26:21;;;;;;;16.50;2.17;;;9.40;99.90;;;;;;5017609;28;20087;-83
2023/02/03 07:28:47;;;;;;;16.40;1.87;;;9.40;99.90;;;;;;5037863;28;20022;-83
2023/02/03 07:31:13;;;;;;;19.37;2.20;;;9.40;99.90;;;;;;5020806;28;20029;-83
2023/02/03 07:33:38;;;;;;;14.70;2.90;;;9.40;99.90;;;;;;5037417;28;20481;-83
2023/02/03 07:36:05;;;;;;;11.80;2.10;;;9.40;99.90;;;;;;5038202;28;20098;-82
2023/02/03 07:38:31;;;;;;;9.63;1.87;;;9.40;99.90;;;;;;5043469;28;20024;-83
2023/02/03 07:40:57;;;;;;;11.73;2.43;;;9.40;99.90;;;;;;5048450;28;20056;-83
2023/02/03 07:43:23;;;;;;;15.40;2.43;;;9.30;99.90;;;;;;5049031;28;20045;-82
2023/02/03 07:45:49;;;;;;;21.00;2.67;;;9.30;99.90;;;;;;5051065;28;20029;-82
2023/02/03 07:48:15;;;;;;;12.33;2.37;;;9.30;99.90;;;;;;5043844;28;20025;-82
2023/02/03 07:50:40;;;;;;;19.97;2.50;;;9.30;99.90;;;;;;5044538;28;20017;-83
2023/02/03 07:53:08;;;;;;;13.53;2.10;;;9.40;99.90;;;;;;5043805;28;20041;-82
2023/02/03 07:55:36;;;;;;;13.77;2.17;;;9.30;99.90;;;;;;5032272;28;20044;-82
2023/02/03 07:58:02;;;;;;;16.03;2.47;;;9.30;99.90;;;;;;5048850;28;20032;-82
2023/02/03 08:00:28;;;;;;;11.93;2.30;;;9.30;99.90;;;;;;5053153;28;20393;-82
2023/02/03 08:02:53;;;;;;;11.40;2.00;;;9.30;99.90;;;;;;5025747;28;20366;-82
2023/02/03 08:05:19;;;;;;;13.67;2.57;;;9.30;99.90;;;;;;5016545;28;20037;-82
2023/02/03 08:07:45;;;;;;;12.30;2.03;;;9.40;99.90;;;;;;5032109;28;20538;-82
2023/02/03 08:10:14;;;;;;;13.23;2.00;;;9.40;99.90;;;;;;5032217;28;20046;-82
2023/02/03 08:12:41;;;;;;;16.43;2.63;;;9.40;99.90;;;;;;5032401;28;20037;-82
2023/02/03 08:15:08;;;;;;;15.20;2.60;;;9.40;99.90;;;;;;5032523;28;20474;-81
2023/02/03 08:17:33;;;;;;;14.83;2.83;;;9.40;99.90;;;;;;5015984;28;20037;-82
2023/02/03 08:19:59;;;;;;;15.80;2.57;;;9.40;99.90;;;;;;5032663;28;20371;-82
2023/02/03 08:22:25;;;;;;;15.43;3.00;;;9.40;99.90;;;;;;5018054;28;20055;-81
2023/02/03 08:24:51;;;;;;;13.90;2.37;;;9.40;99.90;;;;;;5016192;28;20041;-81
2023/02/03 08:27:20;;;;;;;12.33;1.90;;;9.40;99.90;;;;;;5032308;28;20030;-82
2023/02/03 08:29:47;;;;;;;10.43;2.60;;;9.40;99.90;;;;;;5032068;28;20021;-81
2023/02/03 08:32:20;;;;;;;9.90;2.20;;;9.40;99.90;;;;;;5032398;28;20445;-82
2023/02/03 08:34:46;;;;;;;11.00;2.13;;;9.50;99.90;;;;;;5032178;28;20049;-82
2023/02/03 08:37:13;;;;;;;8.60;1.73;;;9.50;99.90;;;;;;5020359;28;20286;-82
2023/02/03 08:39:39;;;;;;;14.50;2.40;;;9.50;99.90;;;;;;5051757;28;20481;-81
2023/02/03 08:42:06;;;;;;;10.27;1.70;;;9.50;99.90;;;;;;5035323;28;20102;-82
2023/02/03 08:44:32;;;;;;;13.80;1.90;;;9.50;99.90;;;;;;5052168;28;20643;-82
2023/02/03 08:46:59;;;;;;;12.40;2.03;;;9.50;99.90;;;;;;5054578;28;20032;-82
2023/02/03 08:49:27;;;;;;;10.20;1.97;;;9.50;99.90;;;;;;5051932;28;20017;-82
2023/02/03 08:51:53;;;;;;;11.23;2.10;;;9.60;99.90;;;;;;5035914;28;20100;-81
2023/02/03 08:54:20;;;;;;;13.70;2.20;;;9.60;99.90;;;;;;5051708;28;20029;-81
2023/02/03 08:56:46;;;;;;;8.47;1.53;;;9.60;99.90;;;;;;5051832;28;20083;-82
2023/02/03 08:59:14;;;;;;;11.37;1.93;;;9.60;99.90;;;;;;5035312;28;20029;-83
2023/02/03 09:01:43;;;;;;;15.03;3.00;;;9.60;99.90;;;;;;5052976;28;20029;-82
2023/02/03 09:04:09;;;;;;;10.50;1.93;;;9.70;99.90;;;;;;5052790;28;20036;-88
2023/02/03 09:06:35;;;;;;;13.80;1.87;;;9.70;99.90;;;;;;5043132;28;20021;-86
2023/02/03 09:09:01;;;;;;;11.17;2.07;;;9.70;99.90;;;;;;5047850;28;20033;-90
2023/02/03 09:11:27;;;;;;;15.53;2.23;;;9.70;99.90;;;;;;5045284;28;20041;-88
2023/02/03 09:13:52;;;;;;;10.37;2.03;;;9.80;99.90;;;;;;5046045;28;20538;-88
2023/02/03 09:16:21;;;;;;;12.57;2.50;;;9.90;99.90;;;;;;5032233;28;20116;-88
2023/02/03 09:18:47;;;;;;;10.57;1.80;;;9.80;99.90;;;;;;5061358;28;20037;-89
2023/02/03 09:21:15;;;;;;;16.07;2.17;;;9.90;99.90;;;;;;5077036;28;20035;-89
2023/02/03 09:23:42;;;;;;;15.83;2.07;;;9.90;99.90;;;;;;5060844;28;20036;-88
2023/02/03 09:26:10;;;;;;;12.93;1.63;;;9.90;99.90;;;;;;5078292;28;20024;-89
2023/02/03 09:28:36;;;;;;;9.23;1.57;;;10.00;99.90;;;;;;5058797;28;20111;-89
2023/02/03 09:31:11;;;;;;;12.30;1.87;;;9.90;99.90;;;;;;5057525;28;20071;-88
2023/02/03 09:33:37;;;;;;;14.70;2.17;;;10.00;99.90;;;;;;5061245;28;20036;-88
2023/02/03 09:36:05;;;;;;;9.60;1.60;;;10.00;99.90;;;;;;5077655;28;20032;-90
2023/02/03 09:38:31;;;;;;;16.13;2.00;;;10.00;99.90;;;;;;5065466;28;20032;-89
2023/02/03 09:41:18;;;;;;;19.17;1.70;;;10.00;99.90;;;;;;5079124;28;20015;-89
2023/02/03 09:43:50;;;;;;;10.63;1.70;;;10.10;99.90;;;;;;5069409;28;20028;-89
2023/02/03 09:46:22;;;;;;;10.63;1.83;;;10.10;99.90;;;;;;5080117;28;20029;-82
2023/02/03 09:49:11;;;;;;;10.27;1.90;;;10.10;99.90;;;;;;5071848;28;20025;-82
2023/02/03 09:51:48;;;;;;;12.10;2.13;;;10.20;99.90;;;;;;5036022;28;20044;-82
2023/02/03 09:54:34;;;;;;;15.90;2.90;;;10.10;99.90;;;;;;5035407;28;20033;-82
2023/02/03 09:57:05;;;;;;;12.10;2.23;;;10.10;99.90;;;;;;5042703;28;20029;-82
2023/02/03 09:59:33;;;;;;;12.50;1.50;;;10.20;99.90;;;;;;5042375;28;20025;-82
2023/02/03 10:02:24;;;;;;;11.30;1.80;;;10.20;99.90;;;;;;5028814;28;20044;-82
2023/02/03 10:05:04;;;;;;;11.80;2.00;;;10.20;99.90;;;;;;5044371;28;20082;-83
2023/02/03 10:07:55;;;;;;;14.97;2.17;;;10.20;99.90;;;;;;5045622;28;20018;-82
2023/02/03 10:10:24;;;;;;;15.70;1.87;;;10.20;99.90;;;;;;5042422;28;20081;-82
2023/02/03 10:13:17;;;;;;;12.40;1.87;;;10.20;99.90;;;;;;5044670;28;20049;-82
2023/02/03 10:16:14;;;;;;;13.00;2.20;;;10.20;99.90;;;;;;5044498;28;20018;-82
2023/02/03 10:18:49;;;;;;;12.37;2.00;;;10.20;99.90;;;;;;5046299;28;20038;-82
2023/02/03 10:21:32;;;;;;;11.00;2.30;;;10.20;99.90;;;;;;5052011;28;20112;-83
2023/02/03 10:23:59;;;;;;;9.37;1.80;;;10.30;99.90;;;;;;5043792;28;20029;-83
2023/02/03 10:26:27;;;;;;;13.07;2.57;;;10.30;99.90;;;;;;5044482;28;20036;-82
2023/02/03 10:28:55;;;;;;;12.33;2.47;;;10.30;99.90;;;;;;5025521;28;20025;-83
2023/02/03 10:31:26;;;;;;;10.90;2.00;;;10.20;99.90;;;;;;5038997;28;20072;-83
2023/02/03 10:34:00;;;;;;;11.60;1.40;;;10.30;99.90;;;;;;5054598;28;20040;-82
2023/02/03 10:36:55;;;;;;;13.50;2.23;;;10.30;99.90;;;;;;5043372;28;20017;-82
2023/02/03 10:39:41;;;;;;;12.53;2.50;;;10.30;99.90;;;;;;5038179;28;20029;-83
2023/02/03 10:42:09;;;;;;;12.07;2.00;;;10.30;99.90;;;;;;5034477;28;20030;-83
2023/02/03 10:44:53;;;;;;;11.80;1.97;;;10.30;99.90;;;;;;5034084;28;20533;-82
2023/02/03 10:47:21;;;;;;;8.40;1.88;;;10.40;99.90;;;;;;5042972;28;20025;-83
2023/02/03 10:49:50;;;;;;;9.53;1.43;;;10.40;99.90;;;;;;5054882;28;20424;-82
2023/02/03 10:52:33;;;;;;;10.80;2.33;;;10.40;99.90;;;;;;5054522;28;20025;-82
2023/02/03 10:55:05;;;;;;;14.40;1.87;;;10.40;99.90;;;;;;5053873;28;20045;-82
2023/02/03 10:57:35;;;;;;;12.40;2.20;;;10.40;99.90;;;;;;5053614;28;20021;-83
2023/02/03 11:00:21;;;;;;;7.53;1.33;;;10.40;99.90;;;;;;5055142;28;20080;-83
2023/02/03 11:03:06;;;;;;;10.43;2.87;;;10.40;99.90;;;;;;5054536;28;20029;-82
2023/02/03 11:05:32;;;;;;;12.70;1.73;;;10.40;99.90;;;;;;5054377;28;20040;-82
2023/02/03 11:07:59;;;;;;;10.97;1.50;;;10.40;99.90;;;;;;5048022;28;20079;-82
2023/02/03 11:10:26;;;;;;;7.83;1.87;;;10.40;99.90;;;;;;5022699;28;20042;-82
2023/02/03 11:13:23;;;;;;;10.37;1.70;;;10.50;99.90;;;;;;5044861;28;20056;-82
2023/02/03 11:15:54;;;;;;;10.57;2.10;;;10.50;99.90;;;;;;5044498;28;20017;-82
2023/02/03 11:18:51;;;;;;;11.77;2.00;;;10.50;99.90;;;;;;5067429;28;20519;-82
2023/02/03 11:21:21;;;;;;;9.77;1.90;;;10.60;99.90;;;;;;5051512;28;20435;-83
2023/02/03 11:23:55;;;;;;;6.03;1.60;;;10.60;99.90;;;;;;5049258;28;20036;-82
2023/02/03 11:26:26;;;;;;;6.00;0.95;;;10.60;99.90;;;;;;5053072;28;20120;-81
2023/02/03 11:28:54;;;;;;;10.10;1.67;;;10.70;99.90;;;;;;5054037;28;20025;-82
2023/02/03 11:31:27;;;;;;;9.67;1.73;;;10.60;99.90;;;;;;5036827;28;20050;-83
2023/02/03 11:34:02;;;;;;;10.33;1.97;;;10.70;99.90;;;;;;5054209;28;20447;-82
2023/02/03 11:36:30;;;;;;;5.38;1.08;;;10.70;99.90;;;;;;5054023;28;20033;-82
2023/02/03 11:39:40;;;;;;;10.05;1.75;;;10.70;99.90;;;;;;5053476;28;20430;-81
2023/02/03 11:42:21;;;;;;;8.93;1.40;;;10.80;99.90;;;;;;5042988;28;20033;-82
2023/02/03 11:44:46;;;;;;;7.80;1.63;;;10.80;99.90;;;;;;5060862;28;20048;-82
2023/02/03 11:47:15;;;;;;;10.57;1.50;;;10.80;99.90;;;;;;5036698;28;20477;-82
2023/02/03 11:49:56;;;;;;;10.43;2.20;;;10.80;99.90;;;;;;5053031;28;20017;-82
2023/02/03 11:52:36;;;;;;;10.40;2.13;;;10.90;99.90;;;;;;5053714;28;20064;-83
2023/02/03 11:55:10;;;;;;;8.83;1.37;;;10.90;99.90;;;;;;5053735;28;20025;-82
2023/02/03 11:58:31;;;;;;;11.38;1.75;;;11.00;99.90;;;;;;5040950;28;20434;-82
2023/02/03 12:01:39;;;;;;;9.07;1.65;;;11.00;99.90;;;;;;5030456;28;20041;-83
2023/02/03 12:04:24;;;;;;;10.65;1.90;;;11.00;99.90;;;;;;5034245;28;20069;-83
2023/02/03 12:07:26;;;;;;;8.30;1.67;;;11.10;99.90;;;;;;5032194;28;20041;-82
2023/02/03 12:10:14;;;;;;;11.35;1.85;;;11.10;99.90;;;;;;5031954;28;20050;-82
2023/02/03 12:13:01;;;;;;;8.90;1.60;;;11.20;99.90;;;;;;5033569;28;20045;-83
2023/02/03 12:15:48;;;;;;;9.65;1.33;;;11.20;99.90;;;;;;5032907;28;20421;-83
2023/02/03 12:18:32;;;;;;;17.05;1.95;;;11.20;99.90;;;;;;5032179;28;20041;-82
2023/02/03 12:21:31;;;;;;;6.53;1.08;;;11.20;99.90;;;;;;5033164;28;20025;-83
2023/02/03 12:23:56;;;;;;;9.57;1.80;;;11.20;99.90;;;;;;5033994;28;20025;-83
2023/02/03 12:26:35;;;;;;;7.60;1.85;;;11.20;99.90;;;;;;5033848;28;20358;-82
2023/02/03 12:29:10;;;;;;;8.73;1.88;;;11.20;99.90;;;;;;5032225;28;20112;-83
2023/02/03 12:31:43;;;;;;;10.02;1.80;;;11.10;99.90;;;;;;5031871;28;20013;-83
2023/02/03 12:34:21;;;;;;;9.18;1.60;;;11.10;99.90;;;;;;5032364;28;20038;-82
2023/02/03 12:36:57;;;;;;;9.97;1.50;;;11.10;99.90;;;;;;5032224;28;20022;-83
2023/02/03 12:39:43;;;;;;;7.97;1.43;;;11.10;99.90;;;;;;5032096;28;20029;-82
2023/02/03 12:42:31;;;;;;;13.60;2.50;;;11.00;99.90;;;;;;5033057;28;20026;-83
2023/02/03 12:45:16;;;;;;;7.73;1.77;;;11.00;99.90;;;;;;5031747;28;20029;-83
2023/02/03 12:47:47;;;;;;;9.60;1.73;;;10.90;99.90;;;;;;5031629;28;20026;-83
2023/02/03 12:50:21;;;;;;;15.80;2.57;;;10.80;99.90;;;;;;5033278;28;20022;-83
2023/02/03 12:53:04;;;;;;;10.95;2.25;;;10.70;99.90;;;;;;5035483;28;20037;-84
2023/02/03 12:55:54;;;;;;;12.13;1.80;;;10.70;99.90;;;;;;5035790;28;20117;-83
2023/02/03 12:58:25;;;;;;;7.97;2.07;;;10.60;99.90;;;;;;5035768;28;20021;-83
2023/02/03 13:01:03;;;;;;;12.03;2.07;;;10.50;99.90;;;;;;5035721;28;20033;-83
2023/02/03 13:03:35;;;;;;;14.87;3.17;;;10.50;99.90;;;;;;5037757;28;20030;-83
2023/02/03 13:06:23;;;;;;;7.57;2.00;;;10.50;99.90;;;;;;5035715;28;20029;-84
2023/02/03 13:09:00;;;;;;;9.97;2.53;;;10.40;99.90;;;;;;5035694;28;20034;-83